Time;durP1;ratioP1;P1;durP2;ratioP2;P2;SDS_P1;SDS_P2;PMS_P1;PMS_P2;Temp;Humidity;BMP_temperature;BMP_pressure;BME280_temperature;BME280_humidity;BME280_pressure;Samples;Min_cycle;Max_cycle;Signal;HPM_P1;HPM_P2
2021/06/21 00:01:34;;;;;;;2.95;1.45;;;;;;;20.42;64.96;99314.27;1709526;82;21624;-66
2021/06/21 00:04:00;;;;;;;3.80;1.40;;;;;;;20.37;65.17;99309.77;1709900;84;21006;-64
2021/06/21 00:06:28;;;;;;;2.70;1.27;;;;;;;20.35;65.25;99317.05;1709565;82;21612;-64
2021/06/21 00:08:55;;;;;;;4.62;1.32;;;;;;;20.36;65.23;99312.33;1709627;83;21078;-64
2021/06/21 00:11:23;;;;;;;5.65;1.57;;;;;;;20.34;65.34;99314.05;1709660;82;21074;-64
2021/06/21 00:13:51;;;;;;;3.55;1.40;;;;;;;20.27;65.51;99312.44;1709700;84;21046;-66
2021/06/21 00:16:19;;;;;;;3.92;1.47;;;;;;;20.20;65.76;99308.03;1709872;82;21129;-64
2021/06/21 00:18:47;;;;;;;4.97;1.42;;;;;;;20.21;65.97;99322.66;1709980;83;21470;-64
2021/06/21 00:21:14;;;;;;;4.37;1.22;;;;;;;20.21;65.92;99321.28;1709944;82;21058;-66
2021/06/21 00:23:42;;;;;;;3.35;1.10;;;;;;;20.22;65.81;99325.09;1709814;84;20999;-67
2021/06/21 00:26:10;;;;;;;5.65;1.17;;;;;;;20.16;65.88;99322.30;1709783;82;21110;-65
2021/06/21 00:28:38;;;;;;;3.20;1.12;;;;;;;20.11;66.02;99319.78;1709759;84;21039;-66
2021/06/21 00:31:05;;;;;;;3.87;1.20;;;;;;;20.12;66.01;99320.00;1709791;82;21568;-66
2021/06/21 00:33:32;;;;;;;2.90;1.20;;;;;;;20.13;65.99;99310.56;1709922;84;21039;-67
2021/06/21 00:35:58;;;;;;;5.08;1.10;;;;;;;20.09;66.10;99313.78;1709924;82;21117;-67
2021/06/21 00:38:24;;;;;;;2.98;1.20;;;;;;;20.03;66.25;99311.59;1689982;84;21070;-65
2021/06/21 00:40:51;;;;;;;4.20;1.20;;;;;;;20.01;66.33;99306.43;1709569;82;21066;-66
2021/06/21 00:43:17;;;;;;;2.83;1.12;;;;;;;20.06;66.15;99299.84;1709879;84;21010;-66
2021/06/21 00:45:44;;;;;;;3.50;1.20;;;;;;;20.10;65.97;99295.25;1709456;82;21098;-67
2021/06/21 00:48:12;;;;;;;4.17;1.12;;;;;;;20.09;65.92;99297.20;1709619;84;21054;-67
2021/06/21 00:50:39;;;;;;;1.85;0.90;;;;;;;20.08;65.90;99292.04;1689899;84;21042;-66
2021/06/21 00:53:05;;;;;;;4.50;1.17;;;;;;;20.10;65.83;99286.96;1689855;84;21050;-64
2021/06/21 00:55:32;;;;;;;2.77;0.90;;;;;;;20.16;65.64;99284.19;1709852;82;21074;-65
2021/06/21 00:57:58;;;;;;;3.90;1.12;;;;;;;20.13;65.66;99284.31;1709634;84;21038;-66
2021/06/21 01:00:27;;;;;;;3.12;1.00;;;;;;;20.09;65.79;99295.02;1709673;82;21047;-66
2021/06/21 01:02:53;;;;;;;3.75;1.00;;;;;;;20.07;65.82;99298.14;1709588;84;21078;-67
2021/06/21 01:05:24;;;;;;;2.58;0.90;;;;;;;20.09;65.80;99288.10;1709844;82;21035;-64
2021/06/21 01:07:51;;;;;;;4.08;1.22;;;;;;;20.06;65.85;99285.47;1709914;84;21047;-67
2021/06/21 01:10:22;;;;;;;2.22;1.07;;;;;;;19.92;66.05;99287.76;1689683;84;21510;-64
2021/06/21 01:13:11;;;;;;;3.75;1.30;;;;;;;19.97;66.12;99289.50;1709718;84;21022;-64
2021/06/21 01:15:47;;;;;;;2.27;1.00;;;;;;;19.99;66.09;99292.14;1709626;82;21074;-64
2021/06/21 01:18:17;;;;;;;3.05;1.00;;;;;;;19.93;66.24;99298.23;1709477;84;20982;-65
2021/06/21 01:21:20;;;;;;;4.10;0.90;;;;;;;19.85;66.41;99295.23;1709893;82;21166;-63
2021/06/21 01:24:16;;;;;;;4.08;1.10;;;;;;;19.84;66.50;99290.05;1709466;84;21002;-64
2021/06/21 01:26:52;;;;;;;3.60;1.10;;;;;;;19.83;66.55;99300.31;1709086;82;21070;-64
2021/06/21 01:30:00;;;;;;;2.62;0.95;;;;;;;19.74;66.81;99300.16;1710109;84;21039;-66
2021/06/21 01:32:48;;;;;;;2.40;0.98;;;;;;;19.69;67.07;99302.59;1709743;83;21081;-66
2021/06/21 01:35:37;;;;;;;3.30;1.25;;;;;;;19.69;67.22;99294.88;1709864;82;21031;-64
2021/06/21 01:38:10;;;;;;;3.30;1.07;;;;;;;19.66;67.34;99288.66;1709558;84;21121;-65
2021/06/21 01:40:41;;;;;;;3.05;1.10;;;;;;;19.62;67.43;99291.30;1708936;82;21105;-63
2021/06/21 01:43:11;;;;;;;4.22;1.05;;;;;;;19.56;67.74;99286.31;1695603;83;21899;-66
2021/06/21 01:45:37;;;;;;;3.27;1.00;;;;;;;19.50;67.88;99278.03;1697583;83;21521;-63
2021/06/21 01:48:04;;;;;;;4.47;1.00;;;;;;;19.54;67.80;99278.39;1695371;83;21037;-65
2021/06/21 01:50:31;;;;;;;3.42;1.10;;;;;;;19.58;67.68;99277.13;1723307;82;21050;-64
2021/06/21 01:53:13;;;;;;;2.80;1.32;;;;;;;19.59;67.68;99277.37;1723222;83;21033;-64
2021/06/21 01:55:50;;;;;;;5.45;1.20;;;;;;;19.56;67.71;99272.52;1723303;82;21049;-64
2021/06/21 01:58:16;;;;;;;2.45;1.05;;;;;;;19.57;67.71;99274.13;1723213;83;21014;-66
2021/06/21 02:00:43;;;;;;;4.22;1.07;;;;;;;19.59;67.63;99274.02;1723249;82;21086;-63
2021/06/21 02:03:10;;;;;;;1.98;1.00;;;;;;;19.63;67.72;99271.38;1723063;83;21524;-64
2021/06/21 02:05:37;;;;;;;3.27;1.07;;;;;;;19.63;67.69;99275.52;1723455;82;21022;-66
2021/06/21 02:08:04;;;;;;;5.78;1.10;;;;;;;19.60;67.85;99277.58;1696361;83;21050;-64
2021/06/21 02:10:33;;;;;;;2.80;0.88;;;;;;;19.62;67.65;99283.02;1723065;82;21100;-65
2021/06/21 02:12:59;;;;;;;4.12;1.00;;;;;;;19.65;67.58;99284.28;1723158;83;21061;-66
2021/06/21 02:15:26;;;;;;;3.10;1.15;;;;;;;19.66;67.45;99283.92;1723246;82;21529;-66
2021/06/21 02:17:52;;;;;;;2.83;1.10;;;;;;;19.65;67.56;99280.14;1672291;83;21639;-64
2021/06/21 02:20:20;;;;;;;4.40;0.80;;;;;;;19.65;67.51;99282.33;1723213;82;21704;-65
2021/06/21 02:22:46;;;;;;;2.33;1.00;;;;;;;19.70;67.41;99277.14;1695541;83;21046;-66
2021/06/21 02:25:13;;;;;;;7.65;1.15;;;;;;;19.72;67.25;99277.05;1723428;82;21070;-66
2021/06/21 02:27:41;;;;;;;2.50;0.93;;;;;;;19.77;67.17;99273.23;1723365;83;21033;-66
2021/06/21 02:30:10;;;;;;;4.28;1.57;;;;;;;19.75;67.09;99272.78;1723343;82;21549;-64
2021/06/21 02:32:37;;;;;;;2.85;0.80;;;;;;;19.76;67.09;99282.13;1723484;83;21510;-65
2021/06/21 02:35:06;;;;;;;4.22;1.20;;;;;;;19.83;66.83;99271.88;1723420;82;21050;-66
2021/06/21 02:37:37;;;;;;;4.22;0.93;;;;;;;19.89;66.56;99273.26;1723423;83;21087;-65
2021/06/21 02:40:07;;;;;;;2.83;1.02;;;;;;;19.89;66.47;99269.12;1723303;82;21085;-64
2021/06/21 02:42:34;;;;;;;4.40;1.02;;;;;;;19.89;66.52;99264.97;1714983;83;21086;-64
2021/06/21 02:45:00;;;;;;;4.35;1.05;;;;;;;19.92;66.47;99262.09;1709682;82;21144;-65
2021/06/21 02:47:28;;;;;;;3.47;1.10;;;;;;;19.99;66.26;99269.23;1709448;84;21581;-63
2021/06/21 02:49:54;;;;;;;3.02;0.90;;;;;;;20.00;66.24;99266.13;1709784;82;21055;-64
2021/06/21 02:52:52;;;;;;;2.70;0.90;;;;;;;19.98;66.33;99278.69;1709776;84;21572;-63
2021/06/21 02:56:52;;;;;;;4.10;1.20;;;;;;;20.08;66.25;99279.61;1781785;79;22720;-65
2021/06/21 02:59:19;;;;;;;3.60;1.00;;;;;;;20.03;66.24;99293.64;1747765;82;21031;-64
2021/06/21 03:01:51;;;;;;;2.05;0.90;;;;;;;20.04;66.26;99295.26;1752890;82;21134;-63
2021/06/21 03:04:19;;;;;;;2.70;1.07;;;;;;;20.10;66.35;99293.87;1753071;82;21589;-64
2021/06/21 03:06:45;;;;;;;4.53;1.55;;;;;;;20.22;66.11;99288.35;1723923;82;21039;-65
2021/06/21 03:09:13;;;;;;;3.37;1.10;;;;;;;20.31;66.05;99293.20;1753145;81;20967;-66
2021/06/21 03:11:42;;;;;;;1.47;0.82;;;;;;;20.42;66.01;99296.30;1753045;82;21564;-63
2021/06/21 03:14:09;;;;;;;4.12;0.90;;;;;;;20.58;65.57;99289.70;1753190;82;21046;-65
2021/06/21 03:16:36;;;;;;;3.33;0.90;;;;;;;20.74;65.23;99290.61;1752941;82;21078;-65
2021/06/21 03:19:02;;;;;;;3.70;1.12;;;;;;;20.94;64.96;99290.19;1723469;82;21560;-66
2021/06/21 03:21:29;;;;;;;4.12;1.30;;;;;;;21.20;63.90;99289.21;1752822;82;21110;-65
2021/06/21 03:23:56;;;;;;;4.22;1.05;;;;;;;21.39;63.25;99284.41;1752862;82;21537;-65
2021/06/21 03:26:28;;;;;;;4.33;0.90;;;;;;;21.54;63.03;99290.52;1752951;81;21074;-65
2021/06/21 03:28:55;;;;;;;4.22;1.00;;;;;;;21.71;62.65;99292.17;1752950;81;21518;-65
2021/06/21 03:31:22;;;;;;;3.65;0.98;;;;;;;21.87;61.99;99294.36;1752813;82;21043;-65
2021/06/21 03:33:49;;;;;;;2.95;1.00;;;;;;;21.99;61.52;99291.55;1753100;82;21478;-65
2021/06/21 03:36:16;;;;;;;2.33;0.90;;;;;;;22.10;61.21;99286.27;1752771;82;21071;-65
2021/06/21 03:38:42;;;;;;;3.52;1.15;;;;;;;22.17;60.90;99288.63;1753287;82;20963;-65
2021/06/21 03:41:09;;;;;;;3.65;1.10;;;;;;;22.24;60.73;99279.10;1747561;82;21034;-65
2021/06/21 03:43:36;;;;;;;3.70;1.00;;;;;;;22.37;60.79;99280.36;1731725;82;20975;-65
2021/06/21 03:46:05;;;;;;;5.90;1.12;;;;;;;22.57;60.82;99275.88;1723145;83;21038;-63
2021/06/21 03:48:32;;;;;;;2.47;1.00;;;;;;;22.80;59.74;99281.58;1723158;83;20964;-63
2021/06/21 03:50:58;;;;;;;5.22;1.10;;;;;;;23.00;59.71;99280.98;1722920;83;21657;-63
2021/06/21 03:53:27;;;;;;;4.80;1.00;;;;;;;23.26;58.57;99280.56;1722997;83;21050;-64
2021/06/21 03:55:53;;;;;;;3.20;0.90;;;;;;;23.36;57.58;99274.17;1733241;82;21058;-63
2021/06/21 03:58:19;;;;;;;3.92;0.88;;;;;;;23.44;57.72;99267.05;1753894;81;21042;-66
2021/06/21 04:00:46;;;;;;;3.00;0.95;;;;;;;23.56;57.61;99266.86;1753630;81;21545;-65
2021/06/21 04:03:12;;;;;;;7.08;1.00;;;;;;;23.77;57.06;99272.80;1753756;81;21488;-64
2021/06/21 04:05:39;;;;;;;3.77;1.40;;;;;;;23.92;56.66;99264.11;1753650;81;21102;-65
2021/06/21 04:08:12;;;;;;;5.33;1.00;;;;;;;23.97;56.28;99269.95;1753417;82;21074;-65
2021/06/21 04:10:39;;;;;;;5.17;1.15;;;;;;;24.10;56.54;99272.16;1753290;82;21120;-64
2021/06/21 04:13:07;;;;;;;3.25;0.80;;;;;;;24.34;55.44;99266.80;1752968;81;21070;-63
2021/06/21 04:15:34;;;;;;;6.35;1.35;;;;;;;24.54;55.29;99268.89;1753114;82;21137;-63
2021/06/21 04:18:05;;;;;;;4.05;1.10;;;;;;;24.75;54.09;99263.63;1753043;82;21090;-65
2021/06/21 04:20:32;;;;;;;4.83;1.30;;;;;;;24.81;53.46;99266.28;1753150;81;21570;-63
2021/06/21 04:22:59;;;;;;;4.60;1.35;;;;;;;25.02;54.19;99271.34;1753140;82;21054;-64
2021/06/21 04:25:25;;;;;;;2.98;1.45;;;;;;;25.02;54.19;99271.34;1753302;82;21557;-65
2021/06/21 04:27:52;;;;;;;5.83;1.50;;;;;;;25.21;53.49;99267.82;1753128;81;21031;-65
2021/06/21 04:30:21;;;;;;;2.85;1.25;;;;;;;25.26;52.96;99267.47;1753177;81;21426;-63
2021/06/21 04:32:47;;;;;;;4.10;1.00;;;;;;;25.45;52.70;99264.28;1753382;82;21019;-63
2021/06/21 04:35:18;;;;;;;3.40;1.10;;;;;;;25.57;52.63;99257.09;1753328;82;21072;-64
2021/06/21 04:37:44;;;;;;;3.02;1.20;;;;;;;25.70;51.62;99259.20;1753356;81;21552;-63
2021/06/21 04:40:14;;;;;;;3.10;1.00;;;;;;;25.72;51.06;99258.22;1753220;82;21063;-63
2021/06/21 04:42:41;;;;;;;6.03;1.27;;;;;;;25.72;51.06;99258.22;1726214;82;21116;-63
2021/06/21 04:45:08;;;;;;;3.77;1.12;;;;;;;25.80;51.65;99260.48;1753269;82;21063;-64
2021/06/21 04:47:34;;;;;;;5.85;1.20;;;;;;;25.91;51.01;99261.97;1753487;81;20956;-66
2021/06/21 04:50:07;;;;;;;2.70;1.35;;;;;;;25.93;50.69;99257.62;1753415;82;21094;-63
2021/06/21 04:52:33;;;;;;;2.80;1.10;;;;;;;25.92;50.21;99258.81;1753217;82;21014;-62
2021/06/21 04:55:01;;;;;;;4.45;1.35;;;;;;;25.83;50.37;99259.70;1753237;82;21565;-63
2021/06/21 04:57:31;;;;;;;5.25;1.27;;;;;;;25.80;50.71;99256.30;1753278;81;21043;-63
2021/06/21 04:59:57;;;;;;;3.60;1.20;;;;;;;25.90;50.95;99254.81;1753361;81;21102;-63
2021/06/21 05:02:24;;;;;;;6.65;1.15;;;;;;;25.98;51.11;99254.47;1753456;81;21544;-66
2021/06/21 05:04:50;;;;;;;4.47;1.17;;;;;;;26.03;50.43;99258.31;1753129;82;21064;-64
2021/06/21 05:07:17;;;;;;;2.62;1.10;;;;;;;26.12;49.66;99255.17;1753145;81;21558;-65
2021/06/21 05:09:43;;;;;;;5.10;0.90;;;;;;;26.20;50.24;99256.87;1753367;82;21030;-64
2021/06/21 05:12:10;;;;;;;3.60;1.10;;;;;;;26.34;49.44;99259.76;1753099;81;21046;-63
2021/06/21 05:14:37;;;;;;;5.15;1.12;;;;;;;26.37;48.95;99257.58;1725634;82;20992;-63
2021/06/21 05:17:08;;;;;;;3.92;1.20;;;;;;;26.40;48.74;99254.59;1752981;81;21058;-63
2021/06/21 05:19:35;;;;;;;3.77;1.02;;;;;;;26.54;49.73;99252.70;1753157;82;21434;-63
2021/06/21 05:22:03;;;;;;;2.98;1.10;;;;;;;26.69;48.45;99259.17;1745001;81;21058;-63
2021/06/21 05:24:31;;;;;;;8.25;1.20;;;;;;;26.68;48.06;99260.35;1696861;83;21019;-62
2021/06/21 05:26:58;;;;;;;5.12;0.90;;;;;;;26.72;48.72;99261.17;1723016;83;21055;-63
2021/06/21 05:29:24;;;;;;;6.30;1.10;;;;;;;26.84;47.13;99253.91;1722275;83;21066;-61
2021/06/21 05:31:51;;;;;;;3.50;0.90;;;;;;;26.89;46.99;99256.30;1721751;83;21086;-63
2021/06/21 05:34:17;;;;;;;4.40;0.88;;;;;;;26.87;46.23;99251.72;1722201;83;21074;-65
2021/06/21 05:36:44;;;;;;;8.60;1.12;;;;;;;26.89;46.54;99260.48;1722214;83;21577;-63
2021/06/21 05:39:11;;;;;;;4.10;0.80;;;;;;;27.06;47.07;99253.41;1722581;83;21011;-64
2021/06/21 05:41:37;;;;;;;3.40;1.12;;;;;;;27.26;46.56;99251.87;1722252;83;21098;-63
2021/06/21 05:44:04;;;;;;;5.05;1.00;;;;;;;27.38;45.45;99250.70;1722910;83;21031;-62
2021/06/21 05:46:30;;;;;;;5.03;1.12;;;;;;;27.50;46.00;99255.34;1722473;83;21098;-60
2021/06/21 05:48:57;;;;;;;2.98;0.95;;;;;;;27.66;45.37;99261.38;1722675;83;21043;-62
2021/06/21 05:51:23;;;;;;;5.47;1.12;;;;;;;27.71;44.95;99260.17;1722449;83;21589;-64
2021/06/21 05:53:49;;;;;;;6.53;1.25;;;;;;;27.61;44.59;99255.36;1722569;83;21069;-62
2021/06/21 05:56:16;;;;;;;2.60;1.00;;;;;;;27.59;44.41;99257.77;1722385;83;21110;-62
2021/06/21 05:58:42;;;;;;;6.15;1.17;;;;;;;27.46;44.57;99258.73;1722711;83;21059;-62
2021/06/21 06:01:08;;;;;;;4.80;1.12;;;;;;;27.43;45.93;99256.70;1722416;83;21549;-63
2021/06/21 06:03:35;;;;;;;2.67;1.12;;;;;;;27.69;45.47;99254.98;1722788;83;21043;-62
2021/06/21 06:06:04;;;;;;;2.77;0.95;;;;;;;27.99;44.63;99250.40;1722240;83;21074;-61
2021/06/21 06:08:30;;;;;;;4.90;1.22;;;;;;;28.23;44.99;99246.04;1722524;83;21018;-61
2021/06/21 06:10:57;;;;;;;5.47;1.20;;;;;;;28.51;44.41;99249.39;1722410;83;21074;-62
2021/06/21 06:13:24;;;;;;;2.10;1.02;;;;;;;28.59;43.18;99236.98;1722192;83;21059;-63
2021/06/21 06:15:50;;;;;;;2.67;0.90;;;;;;;28.51;43.69;99245.19;1722413;83;21080;-62
2021/06/21 06:18:17;;;;;;;3.75;1.10;;;;;;;28.43;43.58;99238.80;1732276;82;20991;-62
2021/06/21 06:20:45;;;;;;;5.03;1.00;;;;;;;28.44;43.60;99242.41;1752147;82;21617;-63
2021/06/21 06:23:11;;;;;;;4.60;0.90;;;;;;;28.52;43.22;99242.59;1752152;82;21031;-62
2021/06/21 06:25:38;;;;;;;6.60;3.80;;;;;;;28.68;43.41;99242.16;1724993;82;21083;-61
2021/06/21 06:28:05;;;;;;;7.47;1.62;;;;;;;28.86;42.86;99226.91;1752358;82;21035;-63
2021/06/21 06:30:32;;;;;;;4.03;1.10;;;;;;;28.98;42.32;99224.27;1752055;82;21043;-61
2021/06/21 06:32:58;;;;;;;3.75;1.20;;;;;;;28.91;42.02;99218.06;1752459;82;21039;-63
2021/06/21 06:35:26;;;;;;;3.52;1.20;;;;;;;28.58;42.49;99211.57;1752156;82;21067;-62
2021/06/21 06:37:52;;;;;;;5.28;1.27;;;;;;;28.28;42.79;99214.02;1752505;82;20999;-61
2021/06/21 06:40:19;;;;;;;3.37;1.10;;;;;;;28.30;43.27;99210.24;1752073;82;21075;-62
2021/06/21 06:42:46;;;;;;;4.80;1.17;;;;;;;28.51;43.67;99199.80;1752265;82;21050;-62
2021/06/21 06:45:13;;;;;;;5.03;1.00;;;;;;;28.72;43.27;99191.95;1752311;82;21876;-61
2021/06/21 06:47:40;;;;;;;3.90;1.12;;;;;;;28.89;43.18;99190.27;1752024;82;21062;-60
2021/06/21 06:50:07;;;;;;;3.72;1.10;;;;;;;28.98;43.04;99185.04;1752278;82;21043;-60
2021/06/21 06:52:33;;;;;;;4.92;1.12;;;;;;;28.96;41.52;99189.63;1738062;82;21482;-61
2021/06/21 06:57:34;;;;;;;4.28;1.10;;;;;;;28.71;43.56;99192.34;1722310;83;21029;-63
2021/06/21 07:00:00;;;;;;;8.03;1.30;;;;;;;28.66;43.26;99197.12;1726898;82;21055;-62
2021/06/21 07:02:27;;;;;;;4.78;1.00;;;;;;;28.77;43.25;99195.72;1737442;82;21494;-63
2021/06/21 07:04:53;;;;;;;5.10;1.30;;;;;;;28.90;42.65;99195.48;1735947;82;21085;-62
2021/06/21 07:07:20;;;;;;;5.67;1.50;;;;;;;29.06;41.83;99190.78;1738731;82;21486;-61
2021/06/21 07:09:47;;;;;;;5.15;1.00;;;;;;;29.15;42.22;99189.14;1737537;82;21011;-62
2021/06/21 07:12:13;;;;;;;7.12;1.10;;;;;;;29.30;42.58;99196.09;1728093;82;21506;-62
2021/06/21 07:14:40;;;;;;;5.30;1.60;;;;;;;29.36;42.14;99198.05;1722998;83;21030;-62
2021/06/21 07:17:07;;;;;;;4.30;1.25;;;;;;;29.45;42.04;99198.38;1723117;83;21035;-61
2021/06/21 07:19:33;;;;;;;4.55;1.30;;;;;;;29.52;42.31;99198.33;1723230;83;21062;-62
2021/06/21 07:22:01;;;;;;;7.17;1.40;;;;;;;29.68;41.79;99187.20;1723309;83;21521;-61
2021/06/21 07:24:28;;;;;;;8.80;1.30;;;;;;;29.62;41.66;99193.24;1723342;83;21538;-61
2021/06/21 07:26:54;;;;;;;3.95;1.20;;;;;;;29.61;41.48;99192.27;1723070;83;21066;-61
2021/06/21 07:29:20;;;;;;;4.87;1.10;;;;;;;29.58;41.33;99192.47;1723384;83;21070;-63
2021/06/21 07:31:48;;;;;;;4.05;1.20;;;;;;;29.39;40.79;99189.42;1727542;82;21019;-62
2021/06/21 07:34:14;;;;;;;4.70;1.00;;;;;;;29.11;41.86;99185.56;1723270;83;21494;-63
2021/06/21 07:36:42;;;;;;;6.50;1.30;;;;;;;29.06;43.25;99185.17;1723078;83;21504;-62
2021/06/21 07:39:09;;;;;;;3.95;1.22;;;;;;;29.31;42.56;99179.45;1723031;83;21075;-63
2021/06/21 07:41:35;;;;;;;3.87;1.22;;;;;;;29.53;41.95;99173.89;1723446;82;21047;-62
2021/06/21 07:44:02;;;;;;;4.55;1.10;;;;;;;29.58;40.99;99176.27;1736977;82;21011;-63
2021/06/21 07:46:29;;;;;;;4.22;1.10;;;;;;;29.60;41.22;99171.03;1713522;82;21027;-62
2021/06/21 07:48:56;;;;;;;6.83;1.05;;;;;;;29.67;41.65;99170.98;1740278;82;21012;-62
2021/06/21 07:51:24;;;;;;;7.35;1.05;;;;;;;29.77;40.62;99167.28;1737230;82;21071;-62
2021/06/21 07:53:52;;;;;;;4.05;1.05;;;;;;;29.76;39.86;99176.90;1741770;80;21463;-62
2021/06/21 07:56:20;;;;;;;4.85;1.50;;;;;;;29.52;40.58;99174.50;1725644;82;21658;-61
2021/06/21 07:58:46;;;;;;;5.12;1.40;;;;;;;29.39;41.46;99176.20;1735986;82;21482;-61
2021/06/21 08:01:13;;;;;;;5.55;1.12;;;;;;;29.54;41.92;99171.29;1713015;82;21522;-60
2021/06/21 08:03:42;;;;;;;3.67;1.10;;;;;;;29.71;40.86;99173.16;1717551;82;21000;-62
2021/06/21 08:06:11;;;;;;;6.83;1.37;;;;;;;29.84;40.00;99174.84;1738441;82;21048;-62
2021/06/21 08:08:40;;;;;;;5.90;1.82;;;;;;;29.93;40.62;99175.20;1739479;82;21166;-62
2021/06/21 08:11:07;;;;;;;7.35;1.62;;;;;;;29.99;39.74;99181.34;1718000;82;21111;-62
2021/06/21 08:13:33;;;;;;;19.42;15.68;;;;;;;29.98;40.24;99172.73;1739473;82;21036;-62
2021/06/21 08:16:00;;;;;;;6.35;3.80;;;;;;;29.95;39.36;99181.98;1717003;82;21023;-61
2021/06/21 08:18:26;;;;;;;4.53;1.47;;;;;;;29.94;39.97;99171.97;1714868;82;20971;-62
2021/06/21 08:20:53;;;;;;;6.25;1.55;;;;;;;30.02;39.66;99162.27;1721003;82;21035;-61
2021/06/21 08:23:19;;;;;;;5.92;1.37;;;;;;;30.10;39.72;99166.61;1735585;82;21063;-63
2021/06/21 08:25:45;;;;;;;7.62;1.42;;;;;;;30.12;39.64;99160.56;1739382;82;21407;-62
2021/06/21 08:28:12;;;;;;;6.00;1.50;;;;;;;30.16;39.71;99159.12;1739091;82;21059;-62
2021/06/21 08:30:39;;;;;;;7.45;1.42;;;;;;;30.26;39.65;99166.63;1720530;82;21518;-65
2021/06/21 08:33:05;;;;;;;5.12;1.40;;;;;;;30.22;39.00;99170.11;1709728;83;21039;-65
2021/06/21 08:35:32;;;;;;;4.70;1.20;;;;;;;30.15;39.54;99162.53;1709334;83;21047;-63
2021/06/21 08:37:58;;;;;;;6.75;1.40;;;;;;;30.15;38.93;99165.34;1709174;84;21075;-64
2021/06/21 08:40:25;;;;;;;9.90;1.67;;;;;;;30.10;39.69;99162.41;1709840;84;21031;-64
2021/06/21 08:42:52;;;;;;;6.15;1.60;;;;;;;30.17;39.53;99169.15;1709797;83;21047;-64
2021/06/21 08:45:18;;;;;;;5.00;1.45;;;;;;;30.25;39.85;99172.08;1709838;84;20992;-64
2021/06/21 08:47:45;;;;;;;7.35;1.60;;;;;;;30.37;40.46;99170.92;1709369;84;21114;-62
2021/06/21 08:50:14;;;;;;;9.13;1.82;;;;;;;30.57;39.85;99169.11;1709949;83;21004;-63
2021/06/21 08:52:42;;;;;;;5.20;1.52;;;;;;;30.74;40.13;99168.73;1709786;83;21498;-63
2021/06/21 08:55:11;;;;;;;8.60;1.50;;;;;;;30.92;39.29;99178.33;1709925;84;21071;-63
2021/06/21 08:57:41;;;;;;;5.78;1.67;;;;;;;30.94;37.77;99180.09;1709628;84;21542;-63
2021/06/21 09:00:10;;;;;;;7.90;1.65;;;;;;;30.81;37.42;99182.69;1709889;83;21067;-63
2021/06/21 09:02:36;;;;;;;7.40;1.67;;;;;;;30.73;37.19;99183.98;1709680;83;21051;-62
2021/06/21 09:05:08;;;;;;;5.12;1.67;;;;;;;30.66;37.88;99185.47;1709645;83;21579;-62
2021/06/21 09:07:34;;;;;;;7.28;2.00;;;;;;;30.68;38.46;99183.66;1709626;84;21113;-62
2021/06/21 09:10:08;;;;;;;6.10;1.72;;;;;;;30.76;38.47;99184.55;1709604;84;21562;-64
2021/06/21 09:12:35;;;;;;;5.33;1.82;;;;;;;30.83;38.13;99177.42;1709620;83;21081;-64
2021/06/21 09:15:08;;;;;;;7.40;1.50;;;;;;;30.84;38.27;99175.42;1709768;83;21039;-61
2021/06/21 09:17:38;;;;;;;9.60;1.90;;;;;;;30.79;38.30;99162.63;1710062;83;21007;-63
2021/06/21 09:20:10;;;;;;;9.15;1.70;;;;;;;30.76;38.10;99169.09;1709969;83;21556;-62
2021/06/21 09:22:41;;;;;;;9.90;1.52;;;;;;;30.69;38.47;99168.38;1709951;84;21094;-63
2021/06/21 09:25:18;;;;;;;8.38;2.22;;;;;;;30.67;39.00;99166.00;1709929;84;21103;-61
2021/06/21 09:28:04;;;;;;;7.22;1.60;;;;;;;30.65;38.56;99172.63;1691141;84;21020;-61
2021/06/21 09:30:32;;;;;;;6.25;1.10;;;;;;;30.74;37.83;99172.14;1709732;83;21584;-62
2021/06/21 09:33:00;;;;;;;7.37;1.60;;;;;;;30.74;37.83;99177.16;1709809;84;21051;-64
2021/06/21 09:35:32;;;;;;;6.47;1.40;;;;;;;30.75;38.75;99180.13;1709732;84;21071;-62
2021/06/21 09:38:07;;;;;;;6.70;1.70;;;;;;;30.79;38.52;99180.89;1709835;84;21039;-62
2021/06/21 09:40:40;;;;;;;6.60;1.20;;;;;;;30.84;39.20;99180.44;1709388;84;21102;-62
2021/06/21 09:43:24;;;;;;;5.67;1.30;;;;;;;30.95;38.28;99188.73;1709895;83;21007;-61
2021/06/21 09:46:10;;;;;;;5.50;1.60;;;;;;;30.91;37.77;99176.73;1709940;83;21047;-63
2021/06/21 09:48:45;;;;;;;6.83;1.50;;;;;;;30.84;39.31;99179.63;1703349;84;21035;-66
2021/06/21 09:51:24;;;;;;;5.85;1.20;;;;;;;30.83;38.26;99184.45;1709732;83;21087;-62
2021/06/21 09:54:11;;;;;;;8.18;1.77;;;;;;;30.81;38.06;99193.92;1709893;83;21428;-61
2021/06/21 09:56:45;;;;;;;7.87;1.70;;;;;;;30.78;39.49;99196.78;1709789;83;21502;-63
2021/06/21 09:59:29;;;;;;;5.60;1.20;;;;;;;30.82;38.86;99191.28;1717753;83;21015;-62
2021/06/21 10:02:22;;;;;;;7.47;1.75;;;;;;;30.84;38.82;99187.45;1717433;83;21573;-62
2021/06/21 10:04:48;;;;;;;6.62;1.62;;;;;;;30.83;38.28;99199.91;1717534;83;21031;-62
2021/06/21 10:07:36;;;;;;;3.80;1.00;;;;;;;30.92;37.42;99202.22;1717578;83;21066;-61
2021/06/21 10:10:07;;;;;;;8.20;1.40;;;;;;;30.91;38.21;99201.42;1717725;83;21090;-63
2021/06/21 10:12:33;;;;;;;4.67;1.32;;;;;;;30.87;38.02;99198.45;1717645;83;21062;-64
2021/06/21 10:14:59;;;;;;;5.37;1.00;;;;;;;30.83;37.50;99200.52;1717763;83;21566;-65
2021/06/21 10:17:26;;;;;;;6.40;1.40;;;;;;;30.80;38.42;99204.16;1717371;83;21059;-63
2021/06/21 10:19:55;;;;;;;4.70;1.17;;;;;;;30.86;37.98;99207.48;1717734;83;21008;-63
2021/06/21 10:22:23;;;;;;;9.95;1.30;;;;;;;30.86;37.64;99201.88;1717680;83;21521;-62
2021/06/21 10:24:55;;;;;;;3.45;1.10;;;;;;;30.79;38.52;99206.17;1717858;83;21024;-61
2021/06/21 10:27:22;;;;;;;3.75;1.25;;;;;;;30.79;38.16;99206.17;1717908;83;21034;-62
2021/06/21 10:29:48;;;;;;;5.15;1.10;;;;;;;30.83;38.08;99212.55;1717869;83;21180;-62
2021/06/21 10:32:15;;;;;;;6.60;1.60;;;;;;;30.93;37.89;99206.59;1717781;83;21070;-60
2021/06/21 10:34:41;;;;;;;3.47;1.35;;;;;;;30.91;37.74;99207.04;1717714;83;20996;-61
2021/06/21 10:37:18;;;;;;;4.42;1.30;;;;;;;30.82;37.71;99203.92;1717683;83;21083;-63
2021/06/21 10:39:50;;;;;;;5.20;1.40;;;;;;;30.70;38.53;99200.28;1717662;83;21028;-63
2021/06/21 10:42:19;;;;;;;4.65;1.55;;;;;;;30.69;38.93;99205.70;1717197;83;21087;-64
2021/06/21 10:44:59;;;;;;;6.20;1.65;;;;;;;30.66;39.40;99214.17;1717648;83;21055;-64
2021/06/21 10:47:41;;;;;;;6.10;1.70;;;;;;;30.68;39.77;99202.69;1717558;83;21072;-62
2021/06/21 10:50:24;;;;;;;6.65;1.57;;;;;;;30.79;38.65;99200.55;1717709;83;21044;-62
2021/06/21 10:52:56;;;;;;;3.50;1.37;;;;;;;30.86;38.56;99200.47;1717789;83;21082;-62
2021/06/21 10:55:33;;;;;;;5.05;1.27;;;;;;;30.95;39.90;99200.77;1717415;83;21142;-62
2021/06/21 10:58:10;;;;;;;5.25;1.40;;;;;;;30.97;39.88;99212.41;1713124;83;21083;-64
2021/06/21 11:00:46;;;;;;;6.10;1.20;;;;;;;30.91;40.06;99209.05;1697257;84;21071;-63
2021/06/21 11:03:33;;;;;;;4.65;1.40;;;;;;;30.92;40.13;99212.86;1710054;83;21015;-62
2021/06/21 11:06:04;;;;;;;8.50;1.85;;;;;;;30.93;39.40;99213.63;1709749;83;21079;-62
2021/06/21 11:08:45;;;;;;;5.72;1.50;;;;;;;30.95;39.55;99209.20;1709841;83;21614;-61
2021/06/21 11:11:44;;;;;;;3.98;1.25;;;;;;;30.97;39.77;99209.59;1709733;84;21055;-64
2021/06/21 11:14:24;;;;;;;4.97;1.30;;;;;;;31.04;40.71;99205.89;1673404;84;21051;-62
2021/06/21 11:17:20;;;;;;;4.65;1.42;;;;;;;31.11;39.96;99204.39;1708913;84;21627;-62
2021/06/21 11:19:46;;;;;;;4.03;1.25;;;;;;;31.16;40.75;99205.94;1710161;83;20971;-62
2021/06/21 11:22:14;;;;;;;8.53;3.00;;;;;;;31.18;39.75;99211.95;1709762;84;21870;-63
2021/06/21 11:24:47;;;;;;;8.95;2.90;;;;;;;31.15;38.82;99210.76;1710017;84;21479;-63
2021/06/21 11:27:15;;;;;;;7.97;2.85;;;;;;;31.05;38.50;99218.73;1710023;84;21051;-62
2021/06/21 11:29:45;;;;;;;7.60;1.87;;;;;;;30.95;39.07;99219.03;1710123;83;20968;-62
2021/06/21 11:32:12;;;;;;;6.42;1.37;;;;;;;30.96;39.53;99219.84;1710066;84;21541;-62
2021/06/21 11:35:00;;;;;;;4.80;1.40;;;;;;;30.98;39.09;99218.22;1710099;84;20961;-63
2021/06/21 11:37:41;;;;;;;6.95;1.40;;;;;;;31.00;39.56;99212.96;1709930;84;21047;-63
2021/06/21 11:40:19;;;;;;;11.85;4.17;;;;;;;30.95;39.99;99209.20;1690202;84;21035;-63
2021/06/21 11:43:06;;;;;;;11.78;4.80;;;;;;;30.88;39.10;99204.27;1709919;84;21034;-63
2021/06/21 11:45:49;;;;;;;12.73;3.67;;;;;;;30.76;40.39;99205.61;1709972;83;21431;-63
2021/06/21 11:48:37;;;;;;;5.87;2.75;;;;;;;30.87;40.89;99205.48;1709863;83;21074;-61
2021/06/21 11:51:15;;;;;;;4.97;1.87;;;;;;;31.03;40.44;99203.71;1709920;83;21035;-63